Terminal Aerodrome Forecast
Issued by NWS Knoxville/Tri Cities, TN

Home | Current Version | Previous Version | Text Only | Print | Product List | Glossary On
Versions: 1 2 3 4 5 6 7 8 9 10 11 12 13 14 15 16 17 18 19 20 21 22 23 24 25 26 27 28 29 30 31 32 33 34 35 36 37 38 39 40 41 42 43 44 45
000
FTUS44 KMRX 011136
TAFTYS
TAF
KTYS 011136Z 0112/0212 23010KT P6SM SCT025 BKN030
     FM011300 23010KT P6SM BKN035
     FM011700 24010KT P6SM VCTS SCT045CB BKN100
     FM012100 25012KT P6SM VCTS BKN045CB
      TEMPO 0121/0201 4SM -TSRA OVC035CB
     FM020200 23006KT P6SM VCTS BKN040CB
     FM020600 24003KT P6SM SCT035 BKN080=

USA.gov is the U.S. government's official web portal to all federal, state and local government web resources and services.